Time;durP1;ratioP1;P1;durP2;ratioP2;P2;SDS_P1;SDS_P2;PMS_P1;PMS_P2;Temp;Humidity;BMP_temperature;BMP_pressure;BME280_temperature;BME280_humidity;BME280_pressure;Samples;Min_cycle;Max_cycle;Signal;HPM_P1;HPM_P2
2022/01/25 00:10:41;;;;;;;84.13;20.10;;;;;;;0.37;87.99;97787.22;4970895;28;20074;-77
2022/01/25 00:24:22;;;;;;;61.20;18.35;;;;;;;0.32;87.40;97779.03;4970584;28;20054;-77
2022/01/25 00:27:02;;;;;;;75.55;19.40;;;;;;;0.31;87.32;97772.81;4970991;28;20062;-76
2022/01/25 00:29:45;;;;;;;71.70;18.05;;;;;;;0.31;87.21;97767.47;4970755;28;20046;-77
2022/01/25 00:32:12;;;;;;;;;;;;;;;0.33;87.43;97759.22;4971002;28;20059;-77
2022/01/25 00:34:38;;;;;;;87.82;19.90;;;;;;;0.28;87.31;97762.56;4970483;28;19926;-77
2022/01/25 00:37:06;;;;;;;87.18;19.13;;;;;;;0.32;87.20;97765.63;4970336;28;20062;-78
2022/01/25 00:39:32;;;;;;;80.90;19.23;;;;;;;0.34;87.07;97761.69;4970829;28;20053;-77
2022/01/25 00:41:59;;;;;;;97.03;19.17;;;;;;;0.25;86.71;97758.44;4970687;28;20097;-77
2022/01/25 00:44:30;;;;;;;122.00;20.42;;;;;;;0.29;86.90;97752.66;4969822;28;20546;-77
2022/01/25 00:47:01;;;;;;;89.10;19.35;;;;;;;0.34;86.92;97761.69;4970415;28;20047;-77
2022/01/25 00:49:29;;;;;;;89.75;20.17;;;;;;;0.39;86.73;97758.34;4970215;28;20074;-78
2022/01/25 00:52:06;;;;;;;82.65;19.55;;;;;;;0.40;86.33;97754.63;4970448;28;20046;-77
2022/01/25 00:54:34;;;;;;;90.88;19.13;;;;;;;0.36;85.68;97753.41;4970144;28;20054;-77
2022/01/25 00:57:01;;;;;;;71.28;18.73;;;;;;;0.24;85.67;97756.81;4970430;28;20066;-77
2022/01/25 00:59:29;;;;;;;133.65;20.90;;;;;;;0.18;85.54;97763.03;4970032;28;20057;-77
2022/01/25 01:01:59;;;;;;;74.32;19.23;;;;;;;0.13;85.48;97760.19;4970461;28;20058;-77
2022/01/25 01:04:26;;;;;;;68.40;19.20;;;;;;;0.18;86.06;97767.56;4969775;28;20058;-77
2022/01/25 01:06:53;;;;;;;77.57;19.33;;;;;;;0.23;86.65;97763.22;4969961;28;20073;-77
2022/01/25 01:09:22;;;;;;;67.20;18.52;;;;;;;0.27;86.57;97768.16;4969788;28;20623;-78
2022/01/25 01:11:56;;;;;;;64.47;19.38;;;;;;;0.29;86.48;97764.19;4969901;28;20058;-77
2022/01/25 01:14:37;;;;;;;66.55;19.23;;;;;;;0.32;86.73;97768.31;4969639;28;20054;-77
2022/01/25 01:17:39;;;;;;;61.53;18.13;;;;;;;0.38;86.55;97772.78;4969495;28;20134;-78
2022/01/25 01:31:06;;;;;;;56.88;19.13;;;;;;;0.34;86.43;97761.69;4970042;28;20058;-77
2022/01/25 01:34:04;;;;;;;75.68;18.23;;;;;;;0.30;86.15;97765.00;4969454;28;20142;-78
2022/01/25 01:39:34;;;;;;;;;;;;;;;0.33;86.47;97759.22;4959200;28;20537;-77
2022/01/25 01:42:27;;;;;;;80.75;18.40;;;;;;;0.32;86.61;97769.13;4969471;28;19925;-77
2022/01/25 01:45:09;;;;;;;73.65;18.58;;;;;;;0.32;86.28;97765.63;4969460;28;20610;-77
2022/01/25 01:47:41;;;;;;;62.03;17.98;;;;;;;0.36;86.33;97769.50;4969233;28;20501;-77
2022/01/25 01:50:14;;;;;;;67.75;18.45;;;;;;;0.36;86.16;97769.50;4968984;28;20545;-78
2022/01/25 01:52:41;;;;;;;77.30;19.48;;;;;;;0.25;85.68;97763.78;4969440;28;20164;-78
2022/01/25 01:55:09;;;;;;;90.28;18.60;;;;;;;0.24;85.68;97766.69;4968729;28;20061;-77
2022/01/25 01:57:36;;;;;;;85.53;18.48;;;;;;;0.16;85.38;97770.47;4968960;28;20510;-78
2022/01/25 02:00:04;;;;;;;78.75;19.98;;;;;;;0.19;85.66;97769.22;4968873;28;20047;-78
2022/01/25 02:02:31;;;;;;;98.55;19.50;;;;;;;0.24;85.79;97769.38;4969260;28;20063;-77
2022/01/25 02:04:57;;;;;;;65.78;18.40;;;;;;;0.24;85.44;97770.19;4968912;28;20501;-79
2022/01/25 02:07:25;;;;;;;76.63;19.60;;;;;;;0.25;85.59;97762.97;4968664;28;20405;-77
2022/01/25 02:09:51;;;;;;;67.93;18.58;;;;;;;0.22;85.61;97756.22;4969127;28;20050;-77
2022/01/25 02:12:18;;;;;;;63.90;19.60;;;;;;;0.22;85.69;97753.53;4968558;28;20047;-78
2022/01/25 02:14:47;;;;;;;84.25;20.23;;;;;;;0.21;85.62;97751.91;4968912;28;20055;-77
2022/01/25 02:17:37;;;;;;;65.10;19.10;;;;;;;0.24;85.79;97750.63;4968350;28;20047;-77
2022/01/25 02:22:52;;;;;;;72.20;18.50;;;;;;;0.20;85.81;97747.56;4968894;28;20065;-77
2022/01/25 02:25:19;;;;;;;93.22;20.27;;;;;;;0.17;85.50;97749.88;4968579;28;20061;-78
2022/01/25 02:27:45;;;;;;;65.93;19.52;;;;;;;0.14;85.61;97755.66;4968686;28;20055;-77
2022/01/25 02:30:13;;;;;;;66.13;19.60;;;;;;;0.22;85.69;97753.53;4968452;28;20055;-77
2022/01/25 02:32:39;;;;;;;53.92;18.35;;;;;;;0.23;85.51;97755.16;4968996;28;20050;-77
2022/01/25 02:35:08;;;;;;;79.22;20.20;;;;;;;0.23;85.45;97751.66;4968053;28;20055;-77
2022/01/25 02:37:35;;;;;;;63.17;18.17;;;;;;;0.18;85.41;97746.97;4969015;28;20082;-77
2022/01/25 02:40:03;;;;;;;74.70;17.77;;;;;;;0.17;85.92;97744.50;4968444;28;20157;-77
2022/01/25 02:42:29;;;;;;;96.72;19.80;;;;;;;0.20;85.90;97742.19;4968619;28;20057;-77
2022/01/25 02:44:56;;;;;;;60.97;17.85;;;;;;;0.15;85.80;97744.72;4968561;28;20553;-77
2022/01/25 02:50:09;;;;;;;70.85;18.95;;;;;;;0.05;85.80;97747.03;4968678;28;20081;-77
2022/01/25 02:52:35;;;;;;;83.10;20.23;;;;;;;0.00;85.91;97736.19;4968472;28;20058;-77
2022/01/25 02:55:02;;;;;;;77.15;18.73;;;;;;;0.09;85.83;97742.09;4968187;28;20070;-77
2022/01/25 02:57:29;;;;;;;79.25;20.05;;;;;;;0.11;85.65;97748.06;4968738;28;20413;-77
2022/01/25 02:59:55;;;;;;;96.20;18.45;;;;;;;0.09;85.79;97742.91;4969088;28;20046;-78
2022/01/25 03:02:22;;;;;;;71.47;18.23;;;;;;;0.09;85.76;97742.91;4968025;28;20426;-77
2022/01/25 03:04:48;;;;;;;71.80;18.85;;;;;;;0.09;85.77;97742.91;4968107;28;20058;-77
2022/01/25 03:07:16;;;;;;;129.27;20.75;;;;;;;0.14;85.63;97751.09;4967868;28;20055;-78
2022/01/25 03:09:43;;;;;;;62.65;17.85;;;;;;;0.08;85.62;97743.94;4971266;28;20421;-78
2022/01/25 03:12:13;;;;;;;98.57;19.52;;;;;;;0.08;85.78;97746.63;4971534;28;20054;-78
2022/01/25 03:14:58;;;;;;;94.97;18.23;;;;;;;0.09;85.79;97740.22;4972227;28;20059;-77
2022/01/25 03:17:29;;;;;;;80.22;18.42;;;;;;;0.10;86.03;97739.19;4972206;28;20055;-78
2022/01/25 03:20:04;;;;;;;73.18;19.55;;;;;;;0.14;85.96;97750.28;4972101;28;20134;-78
2022/01/25 03:22:56;;;;;;;82.88;19.27;;;;;;;0.17;85.72;97739.97;4972016;28;20054;-78
2022/01/25 03:25:23;;;;;;;78.65;17.63;;;;;;;0.14;85.49;97732.34;4971582;28;20054;-77
2022/01/25 03:27:50;;;;;;;126.22;20.27;;;;;;;0.13;85.65;97733.41;4972068;28;20059;-77
2022/01/25 03:30:16;;;;;;;82.88;18.55;;;;;;;0.13;85.70;97738.75;4971218;28;20050;-77
2022/01/25 03:32:43;;;;;;;82.40;18.20;;;;;;;0.10;85.51;97733.81;4971903;28;20051;-78
2022/01/25 03:35:10;;;;;;;71.65;18.40;;;;;;;0.10;85.75;97733.81;4970865;28;20422;-76
2022/01/25 03:37:38;;;;;;;73.05;18.75;;;;;;;0.09;85.66;97732.19;4971457;28;20552;-76
2022/01/25 03:40:06;;;;;;;91.20;18.08;;;;;;;0.11;86.01;97727.44;4971325;28;20051;-78
2022/01/25 03:42:36;;;;;;;78.18;18.13;;;;;;;0.12;85.90;97731.75;4968681;28;20051;-79
2022/01/25 03:45:03;;;;;;;79.15;18.30;;;;;;;0.14;85.64;97731.53;4970830;28;20051;-76
2022/01/25 03:47:42;;;;;;;88.35;17.92;;;;;;;0.00;85.79;97722.81;4971870;28;20058;-79
2022/01/25 03:50:08;;;;;;;81.55;19.08;;;;;;;-0.15;86.32;97724.97;4971120;28;20061;-79
2022/01/25 03:52:36;;;;;;;58.40;17.23;;;;;;;-0.18;86.93;97720.03;4971570;28;20057;-79
2022/01/25 03:55:05;;;;;;;61.95;18.17;;;;;;;-0.17;87.13;97716.31;4970520;28;20125;-79
2022/01/25 03:57:32;;;;;;;76.20;17.20;;;;;;;-0.16;87.42;97708.06;4971501;28;20051;-79
2022/01/25 04:00:00;;;;;;;58.78;18.70;;;;;;;-0.16;87.44;97712.59;4971402;28;20058;-79
2022/01/25 04:02:28;;;;;;;59.10;18.00;;;;;;;-0.12;87.80;97714.63;4971223;28;20050;-78
2022/01/25 04:04:56;;;;;;;70.50;19.40;;;;;;;-0.09;87.88;97708.03;4970860;28;20138;-79
2022/01/25 04:07:29;;;;;;;72.38;17.60;;;;;;;-0.19;87.53;97708.50;4970545;28;20058;-77
2022/01/25 04:09:56;;;;;;;52.65;17.00;;;;;;;-0.28;87.84;97691.06;4971514;28;20050;-79
2022/01/25 04:12:24;;;;;;;64.32;17.55;;;;;;;-0.22;88.02;97697.41;4969895;28;20058;-79
2022/01/25 04:14:50;;;;;;;54.60;17.00;;;;;;;-0.38;88.04;97694.19;4971032;28;20501;-79
2022/01/25 04:17:20;;;;;;;53.95;17.25;;;;;;;-0.35;88.67;97696.44;4970533;28;20058;-79
2022/01/25 04:20:08;;;;;;;72.75;17.63;;;;;;;-0.42;88.80;97687.63;4970886;28;20062;-77
2022/01/25 04:25:17;;;;;;;68.13;17.20;;;;;;;-0.46;89.67;97682.94;4970352;28;20057;-79
2022/01/25 04:27:44;;;;;;;65.65;17.77;;;;;;;-0.43;90.23;97680.63;4971007;28;20417;-79
2022/01/25 04:30:11;;;;;;;56.90;18.85;;;;;;;-0.37;90.46;97678.97;4970393;28;20050;-77
2022/01/25 04:32:46;;;;;;;61.20;18.60;;;;;;;-0.28;90.63;97680.34;4971127;28;20058;-79
2022/01/25 04:35:28;;;;;;;59.15;17.10;;;;;;;-0.31;89.89;97670.91;4969779;28;20058;-77
2022/01/25 04:49:03;;;;;;;52.65;18.80;;;;;;;-0.42;90.65;97671.56;4951205;29;20074;-79
2022/01/25 04:54:22;;;;;;;73.68;17.70;;;;;;;-0.50;91.40;97677.19;4950657;29;20621;-78
2022/01/25 04:56:57;;;;;;;57.40;17.08;;;;;;;-0.53;91.62;97677.63;4951016;28;20379;-79
2022/01/25 04:59:30;;;;;;;93.95;19.35;;;;;;;-0.55;91.73;97672.47;4950851;29;20787;-79
2022/01/25 05:02:03;;;;;;;67.78;17.90;;;;;;;-0.60;91.54;97674.16;4950952;29;20578;-80
2022/01/25 05:04:38;;;;;;;47.13;15.50;;;;;;;-0.65;91.63;97671.31;4950563;29;20058;-78
2022/01/25 05:07:16;;;;;;;69.55;16.48;;;;;;;-0.81;91.51;97678.78;4950065;29;20046;-79
2022/01/25 05:09:45;;;;;;;58.30;16.08;;;;;;;-0.84;91.95;97673.84;4950963;29;20648;-79
2022/01/25 05:12:12;;;;;;;59.55;15.13;;;;;;;-0.88;92.00;97687.91;4962530;28;20058;-79
2022/01/25 05:14:56;;;;;;;51.00;16.00;;;;;;;-0.91;92.04;97680.28;4969928;28;20498;-77
2022/01/25 05:17:31;;;;;;;58.58;15.88;;;;;;;-0.90;92.14;97692.63;4969485;28;20133;-77
2022/01/25 05:22:38;;;;;;;51.50;13.85;;;;;;;-0.82;92.10;97692.38;4969848;28;20113;-77
2022/01/25 05:25:05;;;;;;;48.92;14.40;;;;;;;-0.77;92.18;97689.06;4969280;28;20059;-77
2022/01/25 05:27:32;;;;;;;52.80;13.13;;;;;;;-0.75;91.82;97692.34;4969810;28;20062;-77
2022/01/25 05:30:00;;;;;;;50.65;13.95;;;;;;;-0.79;91.56;97698.09;4969685;28;20057;-77
2022/01/25 05:32:27;;;;;;;48.50;12.75;;;;;;;-0.76;91.72;97696.06;4968711;28;20054;-77
2022/01/25 05:34:54;;;;;;;52.95;14.07;;;;;;;-0.80;91.25;97693.81;4969487;28;20137;-76
2022/01/25 05:37:20;;;;;;;41.08;12.70;;;;;;;-0.78;91.50;97688.25;4969346;28;20051;-77
2022/01/25 05:39:49;;;;;;;45.03;12.85;;;;;;;-0.72;91.81;97684.72;4969505;28;20055;-77
2022/01/25 05:42:42;;;;;;;54.40;12.77;;;;;;;-0.64;91.71;97680.97;4968251;28;20057;-77
2022/01/25 05:45:20;;;;;;;44.13;14.23;;;;;;;-0.58;91.47;97683.59;4968608;28;20506;-77
2022/01/25 05:47:47;;;;;;;43.80;14.23;;;;;;;-0.55;91.21;97693.88;4969487;28;20050;-78
2022/01/25 05:50:13;;;;;;;49.38;14.85;;;;;;;-0.60;90.69;97696.38;4968935;28;20046;-77
2022/01/25 05:52:40;;;;;;;42.80;13.50;;;;;;;-0.70;90.72;97706.72;4969519;28;20055;-77
2022/01/25 05:55:09;;;;;;;39.35;12.23;;;;;;;-0.77;90.40;97699.78;4968675;28;20054;-77
2022/01/25 05:57:35;;;;;;;46.90;11.70;;;;;;;-0.82;90.73;97700.41;4968990;28;20054;-77
2022/01/25 06:00:05;;;;;;;59.08;12.25;;;;;;;-0.90;90.58;97695.28;4968884;28;20121;-77
2022/01/25 06:02:34;;;;;;;62.40;12.00;;;;;;;-0.98;91.05;97698.22;4969372;28;20058;-77
2022/01/25 06:05:01;;;;;;;46.72;11.75;;;;;;;-0.98;91.47;97687.53;4968761;28;20133;-77
2022/01/25 06:07:27;;;;;;;51.28;13.05;;;;;;;-0.95;91.45;97687.91;4968581;28;20058;-77
2022/01/25 06:09:54;;;;;;;42.33;12.75;;;;;;;-0.90;91.59;97688.09;4969235;28;20058;-76
2022/01/25 06:12:21;;;;;;;48.10;12.85;;;;;;;-0.85;91.44;97682.91;4967625;28;20131;-77
2022/01/25 06:14:47;;;;;;;41.00;12.80;;;;;;;-0.87;91.09;97684.19;4968730;28;20050;-78
2022/01/25 06:17:14;;;;;;;56.65;12.80;;;;;;;-0.97;91.07;97673.94;4968553;28;20061;-77
2022/01/25 06:19:43;;;;;;;61.72;13.82;;;;;;;-0.94;91.22;97672.66;4968787;28;20053;-78
2022/01/25 06:22:10;;;;;;;55.25;13.77;;;;;;;-0.91;91.57;97662.38;4968612;28;20502;-78
2022/01/25 06:24:36;;;;;;;52.75;13.18;;;;;;;-0.86;91.67;97669.78;4968872;28;20062;-77
2022/01/25 06:27:03;;;;;;;57.15;14.27;;;;;;;-0.80;91.75;97666.25;4968420;28;20062;-77
2022/01/25 06:29:29;;;;;;;43.75;12.07;;;;;;;-0.79;91.53;97660.66;4968990;28;20054;-77
2022/01/25 06:31:56;;;;;;;50.80;14.63;;;;;;;-0.80;91.49;97669.72;4968844;28;20058;-76
2022/01/25 06:34:22;;;;;;;52.28;13.77;;;;;;;-0.74;91.82;97673.41;4968112;28;20074;-77
2022/01/25 06:36:50;;;;;;;43.17;12.00;;;;;;;-0.76;91.63;97674.66;4968612;28;20054;-76
2022/01/25 06:39:17;;;;;;;49.67;12.38;;;;;;;-0.79;91.64;97676.72;4967841;28;20047;-77
2022/01/25 06:41:44;;;;;;;60.47;13.57;;;;;;;-0.72;91.86;97684.72;4968446;28;20061;-79
2022/01/25 06:44:10;;;;;;;44.40;13.10;;;;;;;-0.70;91.45;97692.53;4970324;28;20053;-76
2022/01/25 06:46:37;;;;;;;42.40;13.70;;;;;;;-0.73;91.44;97692.94;4972566;28;20070;-78
2022/01/25 06:49:04;;;;;;;47.72;14.10;;;;;;;-0.67;91.88;97695.59;4972411;28;20417;-78
2022/01/25 06:51:31;;;;;;;40.78;12.68;;;;;;;-0.59;92.02;97697.19;4972476;28;20050;-77
2022/01/25 06:53:59;;;;;;;47.92;14.23;;;;;;;-0.51;91.81;97702.31;4972438;28;20429;-77
2022/01/25 06:56:26;;;;;;;40.53;13.65;;;;;;;-0.51;91.63;97702.31;4971819;28;20062;-77
2022/01/25 06:58:52;;;;;;;47.90;13.32;;;;;;;-0.48;91.10;97698.38;4972528;28;20391;-76
2022/01/25 07:01:19;;;;;;;51.17;12.48;;;;;;;-0.44;91.29;97711.13;4971899;28;20051;-77
2022/01/25 07:03:46;;;;;;;47.75;13.38;;;;;;;-0.41;90.73;97713.38;4972633;28;20130;-77
2022/01/25 07:06:12;;;;;;;49.13;13.90;;;;;;;-0.38;90.66;97720.97;4971603;28;20592;-77
2022/01/25 07:08:39;;;;;;;36.50;12.55;;;;;;;-0.39;90.42;97713.97;4972209;28;20059;-77
2022/01/25 07:11:07;;;;;;;47.17;13.45;;;;;;;-0.31;90.72;97716.41;4971070;28;20043;-77
2022/01/25 07:13:34;;;;;;;40.28;13.10;;;;;;;-0.34;90.21;97711.47;4972275;28;20050;-77
2022/01/25 07:16:00;;;;;;;44.47;13.27;;;;;;;-0.32;90.29;97709.38;4971367;28;20053;-77
2022/01/25 07:18:27;;;;;;;41.72;13.68;;;;;;;-0.32;90.34;97712.06;4971919;28;20055;-77
2022/01/25 07:20:53;;;;;;;38.15;12.77;;;;;;;-0.27;90.37;97714.09;4972428;28;20054;-76
2022/01/25 07:23:20;;;;;;;50.53;14.02;;;;;;;-0.24;90.25;97711.00;4971682;28;20054;-77
2022/01/25 07:25:46;;;;;;;45.47;13.65;;;;;;;-0.25;90.14;97711.22;4971616;28;20062;-76
2022/01/25 07:28:14;;;;;;;56.25;13.73;;;;;;;-0.27;90.02;97706.88;4971879;28;20074;-77
2022/01/25 07:30:41;;;;;;;53.20;14.55;;;;;;;-0.30;90.03;97711.88;4972143;28;20077;-77
2022/01/25 07:33:07;;;;;;;52.50;13.82;;;;;;;-0.38;89.91;97715.59;4971854;28;20059;-76
2022/01/25 07:35:34;;;;;;;46.97;12.77;;;;;;;-0.35;90.33;97709.84;4971326;28;20577;-77
2022/01/25 07:38:01;;;;;;;47.13;13.98;;;;;;;-0.35;90.29;97704.47;4971884;28;20158;-77
2022/01/25 07:40:28;;;;;;;42.50;12.98;;;;;;;-0.31;90.40;97716.41;4971251;28;20051;-77
2022/01/25 07:42:54;;;;;;;61.88;13.60;;;;;;;-0.28;90.27;97713.28;4971244;28;20069;-76
2022/01/25 07:45:24;;;;;;;40.50;13.05;;;;;;;-0.28;90.33;97715.97;4970782;28;20055;-77
2022/01/25 07:47:50;;;;;;;71.72;13.38;;;;;;;-0.24;90.21;97712.88;4971766;28;20461;-77
2022/01/25 07:50:17;;;;;;;48.47;13.23;;;;;;;-0.29;89.89;97713.50;4971171;28;20076;-76
2022/01/25 07:52:44;;;;;;;60.08;12.88;;;;;;;-0.37;89.93;97706.53;4971490;28;20054;-77
2022/01/25 07:55:11;;;;;;;50.35;13.60;;;;;;;-0.41;90.16;97721.41;4969665;28;20568;-77
2022/01/25 07:57:38;;;;;;;65.55;15.00;;;;;;;-0.34;90.63;97719.50;4971455;28;20454;-77
2022/01/25 08:00:06;;;;;;;55.92;14.80;;;;;;;-0.35;90.35;97723.22;4970887;28;20530;-76
2022/01/25 08:02:34;;;;;;;47.42;13.02;;;;;;;-0.37;90.35;97711.88;4971476;28;20054;-77
2022/01/25 08:05:00;;;;;;;66.93;13.50;;;;;;;-0.42;90.50;97722.41;4971061;28;20494;-77
2022/01/25 08:07:27;;;;;;;50.22;13.50;;;;;;;-0.52;90.63;97714.06;4970745;28;20387;-77
2022/01/25 08:09:53;;;;;;;44.70;13.65;;;;;;;-0.57;90.99;97721.91;4971033;28;20066;-77
2022/01/25 08:12:20;;;;;;;49.35;14.02;;;;;;;-0.53;91.41;97712.41;4969829;28;20061;-77
2022/01/25 08:14:46;;;;;;;71.75;15.13;;;;;;;-0.45;91.70;97714.03;4970870;28;20058;-77
2022/01/25 08:17:15;;;;;;;56.78;13.45;;;;;;;-0.44;91.39;97718.31;4970714;28;20054;-77
2022/01/25 08:19:44;;;;;;;60.10;14.10;;;;;;;-0.44;91.30;97713.78;4971293;28;20058;-77
2022/01/25 08:22:11;;;;;;;48.20;14.55;;;;;;;-0.46;90.86;97721.22;4970912;28;20059;-77
2022/01/25 08:24:37;;;;;;;79.63;14.20;;;;;;;-0.47;91.21;97714.25;4970744;28;20054;-76
2022/01/25 08:27:05;;;;;;;82.20;15.05;;;;;;;-0.47;91.56;97719.59;4970457;28;20069;-76
2022/01/25 08:29:31;;;;;;;61.20;13.65;;;;;;;-0.46;91.51;97723.91;4970795;28;20509;-77
2022/01/25 08:31:57;;;;;;;64.03;13.65;;;;;;;-0.52;90.98;97719.41;4971019;28;20062;-77
2022/01/25 08:34:24;;;;;;;44.08;13.25;;;;;;;-0.48;90.93;97719.78;4970497;28;20061;-76
2022/01/25 08:36:52;;;;;;;59.97;13.40;;;;;;;-0.45;91.20;97714.03;4970744;28;20059;-77
2022/01/25 08:39:18;;;;;;;63.38;13.23;;;;;;;-0.42;91.22;97710.91;4970507;28;20058;-77
2022/01/25 08:41:45;;;;;;;57.20;11.88;;;;;;;-0.54;90.22;97716.13;4969929;28;20070;-77
2022/01/25 08:44:12;;;;;;;40.17;11.48;;;;;;;-0.67;90.03;97721.53;4970312;28;20042;-77
2022/01/25 08:46:39;;;;;;;40.45;10.80;;;;;;;-0.77;90.15;97722.00;4970205;28;20054;-77
2022/01/25 08:49:06;;;;;;;38.38;11.77;;;;;;;-0.74;90.83;97720.72;4970459;28;20117;-77
2022/01/25 08:51:32;;;;;;;90.70;13.10;;;;;;;-0.75;90.61;97721.78;4970802;28;20042;-77
2022/01/25 08:54:00;;;;;;;41.85;12.32;;;;;;;-0.71;90.79;97726.50;4970637;28;20532;-77
2022/01/25 08:56:27;;;;;;;56.70;11.95;;;;;;;-0.71;90.50;97720.31;4969518;28;20732;-76
2022/01/25 08:58:54;;;;;;;57.50;11.60;;;;;;;-0.72;90.51;97724.03;4970391;28;20046;-76
2022/01/25 09:01:21;;;;;;;68.57;10.95;;;;;;;-0.79;90.51;97719.50;4970186;28;20086;-76
2022/01/25 09:03:48;;;;;;;62.03;11.25;;;;;;;-0.80;90.68;97717.06;4970251;28;20082;-77
2022/01/25 09:06:14;;;;;;;43.15;12.00;;;;;;;-0.82;90.75;97722.63;4968809;28;20051;-76
2022/01/25 09:08:41;;;;;;;40.03;11.57;;;;;;;-0.82;90.85;97719.13;4970411;28;20055;-77
2022/01/25 09:11:09;;;;;;;44.50;11.13;;;;;;;-0.77;90.97;97723.84;4969047;28;20051;-77
2022/01/25 09:13:36;;;;;;;50.25;12.52;;;;;;;-0.64;91.38;97721.09;4969979;28;20417;-77
2022/01/25 09:16:04;;;;;;;38.78;11.68;;;;;;;-0.51;91.48;97729.06;4969061;28;20129;-76
2022/01/25 09:18:30;;;;;;;38.90;12.40;;;;;;;-0.41;91.30;97731.28;4970056;28;20055;-76
2022/01/25 09:20:57;;;;;;;38.83;11.48;;;;;;;-0.39;90.92;97729.22;4969859;28;20442;-77
2022/01/25 09:23:24;;;;;;;29.05;10.70;;;;;;;-0.31;91.04;97732.47;4969698;28;20418;-77
2022/01/25 09:25:51;;;;;;;38.17;11.63;;;;;;;-0.27;90.63;97736.34;4969287;28;20811;-77
2022/01/25 09:28:19;;;;;;;31.65;9.95;;;;;;;-0.17;90.68;97733.19;4969284;28;20506;-77
2022/01/25 09:30:46;;;;;;;37.08;10.65;;;;;;;-0.10;90.36;97733.16;4969683;28;20062;-77
2022/01/25 09:33:13;;;;;;;36.53;10.40;;;;;;;-0.03;89.98;97733.94;4969244;28;20525;-76
2022/01/25 09:35:40;;;;;;;42.05;11.18;;;;;;;0.06;89.74;97742.53;4969357;28;20050;-77
2022/01/25 09:38:07;;;;;;;31.52;9.75;;;;;;;0.02;88.66;97742.13;4969179;28;20049;-76
2022/01/25 09:40:34;;;;;;;38.58;10.85;;;;;;;-0.09;88.05;97737.47;4969754;28;20058;-77
2022/01/25 09:43:01;;;;;;;38.00;10.70;;;;;;;-0.11;88.27;97742.22;4968539;28;20058;-77
2022/01/25 09:45:29;;;;;;;34.05;10.07;;;;;;;-0.15;88.34;97751.72;4968955;28;20043;-77
2022/01/25 09:47:56;;;;;;;47.67;11.57;;;;;;;-0.10;88.67;97749.22;4969284;28;20067;-77
2022/01/25 09:50:24;;;;;;;49.80;11.43;;;;;;;-0.01;89.08;97745.25;4969316;28;20069;-77
2022/01/25 09:52:51;;;;;;;34.08;10.93;;;;;;;0.04;88.56;97734.69;4969487;28;20050;-76
2022/01/25 09:55:20;;;;;;;31.65;11.38;;;;;;;0.12;88.88;97737.13;4968599;28;20474;-77
2022/01/25 09:57:47;;;;;;;35.45;10.55;;;;;;;0.21;89.19;97735.00;4968832;28;20057;-77
2022/01/25 10:00:16;;;;;;;37.60;10.52;;;;;;;0.19;88.56;97727.16;4968856;28;20062;-77
2022/01/25 10:02:52;;;;;;;42.78;11.70;;;;;;;0.23;88.76;97728.38;4969603;28;20047;-77
2022/01/25 10:05:25;;;;;;;29.00;10.32;;;;;;;0.27;88.58;97727.97;4968285;28;20054;-76
2022/01/25 10:07:57;;;;;;;27.77;10.52;;;;;;;0.35;88.61;97730.34;4969148;28;20110;-77
2022/01/25 10:10:25;;;;;;;48.88;10.63;;;;;;;0.30;87.52;97731.00;4968623;28;20054;-77
2022/01/25 10:12:52;;;;;;;28.48;11.10;;;;;;;0.20;87.37;97727.97;4968450;28;20062;-77
2022/01/25 10:15:18;;;;;;;41.28;12.20;;;;;;;0.19;88.02;97727.16;4967915;28;20050;-77
2022/01/25 10:17:46;;;;;;;50.80;13.20;;;;;;;0.24;88.40;97727.34;4968527;28;20418;-77
2022/01/25 10:20:27;;;;;;;34.88;11.75;;;;;;;0.23;88.57;97722.19;4968602;28;20054;-76
2022/01/25 10:22:53;;;;;;;33.05;10.98;;;;;;;0.21;88.35;97716.25;4969039;28;20058;-76
2022/01/25 10:25:30;;;;;;;41.25;12.40;;;;;;;0.21;88.71;97713.56;4968168;28;20054;-77
2022/01/25 10:28:00;;;;;;;42.53;12.73;;;;;;;0.13;88.65;97728.03;4968762;28;20788;-76
2022/01/25 10:30:31;;;;;;;54.38;13.43;;;;;;;-0.01;88.71;97726.50;4968476;28;20054;-78
2022/01/25 10:33:01;;;;;;;40.80;13.68;;;;;;;0.04;89.45;97723.16;4969068;28;20054;-78
2022/01/25 10:35:30;;;;;;;42.15;14.55;;;;;;;0.06;89.87;97721.94;4968533;28;20147;-76
2022/01/25 10:37:57;;;;;;;40.20;14.15;;;;;;;0.02;89.75;97720.72;4968862;28;20062;-76
2022/01/25 10:40:36;;;;;;;38.95;13.48;;;;;;;0.03;89.85;97713.50;4968183;28;20050;-76
2022/01/25 10:43:06;;;;;;;31.60;13.45;;;;;;;-0.02;89.39;97716.81;4967758;28;20078;-78
2022/01/25 10:45:33;;;;;;;28.25;11.05;;;;;;;-0.07;89.21;97722.00;4968237;28;20462;-76
2022/01/25 10:48:01;;;;;;;31.50;11.98;;;;;;;-0.19;88.83;97713.84;4969136;28;20051;-76
2022/01/25 10:50:31;;;;;;;36.65;12.50;;;;;;;-0.27;88.62;97709.56;4968389;28;20421;-76
2022/01/25 10:53:07;;;;;;;36.40;12.77;;;;;;;-0.13;89.26;97715.66;4968699;28;20050;-76
2022/01/25 10:55:38;;;;;;;39.35;14.05;;;;;;;0.04;89.69;97715.94;4968291;28;20062;-77
2022/01/25 10:58:05;;;;;;;36.30;13.48;;;;;;;0.20;88.84;97701.19;4967796;28;20113;-77
2022/01/25 11:00:34;;;;;;;41.55;14.13;;;;;;;0.35;88.67;97701.69;4968735;28;20508;-76
2022/01/25 11:03:03;;;;;;;40.13;14.60;;;;;;;0.42;88.03;97704.34;4968808;28;20086;-77
2022/01/25 11:05:33;;;;;;;36.65;14.00;;;;;;;0.42;87.85;97704.34;4967942;28;20046;-77
2022/01/25 11:08:10;;;;;;;37.35;14.70;;;;;;;0.44;87.61;97702.25;4968107;28;20074;-76
2022/01/25 11:10:38;;;;;;;36.00;13.73;;;;;;;0.53;87.48;97695.56;4967616;28;20050;-76
2022/01/25 11:13:21;;;;;;;32.30;13.57;;;;;;;0.56;86.25;97699.66;4968047;28;20051;-77
2022/01/25 11:15:48;;;;;;;32.55;13.65;;;;;;;0.62;85.99;97698.75;4968217;28;20078;-77
2022/01/25 11:18:16;;;;;;;30.77;13.07;;;;;;;0.54;84.83;97691.84;4967565;28;20050;-76
2022/01/25 11:20:44;;;;;;;29.60;13.80;;;;;;;0.40;84.18;97695.66;4968446;28;20050;-76
2022/01/25 11:23:12;;;;;;;31.17;13.77;;;;;;;0.34;85.42;97688.53;4967915;28;20055;-77
2022/01/25 11:25:40;;;;;;;36.03;15.10;;;;;;;0.36;86.57;97692.59;4968324;28;20046;-76
2022/01/25 11:28:07;;;;;;;36.55;15.20;;;;;;;0.40;86.67;97684.94;4967633;28;20051;-77
2022/01/25 11:30:36;;;;;;;40.05;15.48;;;;;;;0.49;86.99;97684.47;4970801;28;20427;-76
2022/01/25 11:33:04;;;;;;;38.33;15.88;;;;;;;0.59;86.58;97689.31;4971783;28;20058;-77
2022/01/25 11:35:33;;;;;;;34.38;15.88;;;;;;;0.68;86.08;97688.00;4972180;28;20123;-76
2022/01/25 11:37:59;;;;;;;33.38;14.52;;;;;;;0.78;85.29;97682.94;4971613;28;20047;-77
2022/01/25 11:40:29;;;;;;;33.95;15.40;;;;;;;0.81;84.60;97681.66;4971588;28;20498;-78
2022/01/25 11:43:00;;;;;;;35.05;16.08;;;;;;;0.92;84.32;97678.22;4971625;28;20433;-77
2022/01/25 11:45:29;;;;;;;36.42;16.77;;;;;;;0.97;84.21;97674.88;4971863;28;20043;-77
2022/01/25 11:47:57;;;;;;;35.70;16.08;;;;;;;1.02;83.56;97672.34;4971361;28;20064;-77
2022/01/25 11:50:28;;;;;;;35.35;15.73;;;;;;;1.07;82.98;97675.16;4971017;28;20054;-77
2022/01/25 11:53:01;;;;;;;32.60;15.45;;;;;;;1.05;80.92;97677.25;4971304;28;20058;-78
2022/01/25 11:55:30;;;;;;;33.72;15.50;;;;;;;1.09;81.45;97672.25;4971081;28;20391;-77
2022/01/25 11:57:58;;;;;;;34.17;16.13;;;;;;;1.06;81.49;97683.44;4971103;28;20061;-77
2022/01/25 12:00:38;;;;;;;35.78;17.33;;;;;;;1.10;81.63;97684.63;4971046;28;20494;-77
2022/01/25 12:03:20;;;;;;;32.70;15.93;;;;;;;1.12;80.28;97678.00;4971515;28;20120;-77
2022/01/25 12:05:55;;;;;;;33.20;15.80;;;;;;;1.14;80.40;97667.03;4970987;28;20061;-77
2022/01/25 12:08:38;;;;;;;30.38;15.05;;;;;;;1.10;80.24;97661.31;4970650;28;20058;-79
2022/01/25 12:11:33;;;;;;;31.60;14.63;;;;;;;1.06;79.83;97657.44;4969732;28;20050;-76
2022/01/25 12:14:26;;;;;;;30.95;14.85;;;;;;;1.06;80.08;97656.63;4971649;28;20055;-76
2022/01/25 12:16:56;;;;;;;31.60;15.52;;;;;;;1.13;80.99;97652.81;4952153;28;20051;-76
2022/01/25 12:19:33;;;;;;;33.83;16.33;;;;;;;1.16;80.05;97657.72;4970435;28;20410;-79
2022/01/25 12:22:03;;;;;;;28.40;14.77;;;;;;;1.16;79.99;97647.00;4971115;28;20050;-80
2022/01/25 12:24:36;;;;;;;32.42;15.27;;;;;;;1.24;80.58;97641.28;4971105;28;20078;-78
2022/01/25 12:27:09;;;;;;;32.35;15.25;;;;;;;1.35;80.80;97638.88;4970114;28;20057;-78
2022/01/25 12:29:41;;;;;;;29.23;13.90;;;;;;;1.34;78.89;97642.63;4970774;28;20077;-79
2022/01/25 12:32:27;;;;;;;32.15;16.02;;;;;;;1.38;79.44;97638.44;4970444;28;20057;-78